sensor_id;sensor_type;location;lat;lon;timestamp;pressure;altitude;pressure_sealevel;temperature;humidity
31183;BME280;17813;0.000;0.000;2023-03-15T00:01:14;76446.78;;;-142.58;76.65
31183;BME280;17813;0.000;0.000;2023-03-15T00:03:42;76444.75;;;-142.58;77.42
31183;BME280;17813;0.000;0.000;2023-03-15T00:06:10;76454.91;;;-142.58;77.90
31183;BME280;17813;0.000;0.000;2023-03-15T00:08:38;76459.13;;;-142.58;76.76
31183;BME280;17813;0.000;0.000;2023-03-15T00:11:06;76477.28;;;-142.58;77.08
31183;BME280;17813;0.000;0.000;2023-03-15T00:13:33;76499.66;;;-142.58;91.71
31183;BME280;17813;0.000;0.000;2023-03-15T00:16:01;76522.19;;;-142.58;79.16
31183;BME280;17813;0.000;0.000;2023-03-15T00:18:31;76532.22;;;-142.58;78.65
31183;BME280;17813;0.000;0.000;2023-03-15T00:20:59;76538.31;;;-142.58;79.05
31183;BME280;17813;0.000;0.000;2023-03-15T00:23:26;76534.25;;;-142.58;78.74
31183;BME280;17813;0.000;0.000;2023-03-15T00:25:53;76524.22;;;-142.58;78.33
31183;BME280;17813;0.000;0.000;2023-03-15T00:28:20;76520.13;;;-142.58;78.17
31183;BME280;17813;0.000;0.000;2023-03-15T00:31:02;76528.28;;;-142.58;77.84
31183;BME280;17813;0.000;0.000;2023-03-15T00:33:30;76546.47;;;-142.58;78.26
31183;BME280;17813;0.000;0.000;2023-03-15T00:36:05;76534.25;;;-142.58;78.72
31183;BME280;17813;0.000;0.000;2023-03-15T00:38:35;76546.47;;;-142.58;78.35
31183;BME280;17813;0.000;0.000;2023-03-15T00:41:07;76550.53;;;-142.58;77.73
31183;BME280;17813;0.000;0.000;2023-03-15T00:43:35;76554.59;;;-142.58;77.84
31183;BME280;17813;0.000;0.000;2023-03-15T00:46:03;76556.63;;;-142.58;78.27
31183;BME280;17813;0.000;0.000;2023-03-15T00:48:31;76562.75;;;-142.58;78.81
31183;BME280;17813;0.000;0.000;2023-03-15T00:51:18;76568.84;;;-142.58;78.00
31183;BME280;17813;0.000;0.000;2023-03-15T00:53:47;76574.94;;;-142.58;78.28
31183;BME280;17813;0.000;0.000;2023-03-15T00:56:18;76574.94;;;-142.58;79.21
31183;BME280;17813;0.000;0.000;2023-03-15T00:58:45;76574.94;;;-142.58;78.79
31183;BME280;17813;0.000;0.000;2023-03-15T01:01:18;76579.00;;;-142.58;80.06
31183;BME280;17813;0.000;0.000;2023-03-15T01:03:45;76587.16;;;-142.58;79.19
31183;BME280;17813;0.000;0.000;2023-03-15T01:06:21;76597.31;;;-142.58;79.84
31183;BME280;17813;0.000;0.000;2023-03-15T01:08:49;76611.56;;;-142.58;80.30
31183;BME280;17813;0.000;0.000;2023-03-15T01:11:19;76613.59;;;-142.58;80.49
31183;BME280;17813;0.000;0.000;2023-03-15T01:13:47;76625.81;;;-142.58;80.09
31183;BME280;17813;0.000;0.000;2023-03-15T01:16:14;76619.69;;;-142.58;80.60
31183;BME280;17813;0.000;0.000;2023-03-15T01:18:41;76633.94;;;-142.58;81.05
31183;BME280;17813;0.000;0.000;2023-03-15T01:21:11;76623.78;;;-142.58;80.97
31183;BME280;17813;0.000;0.000;2023-03-15T01:23:38;76625.81;;;-142.58;80.22
31183;BME280;17813;0.000;0.000;2023-03-15T01:26:08;76619.69;;;-142.58;80.48
31183;BME280;17813;0.000;0.000;2023-03-15T01:28:36;76629.88;;;-142.58;79.53
31183;BME280;17813;0.000;0.000;2023-03-15T01:31:03;76621.72;;;-142.58;79.98
31183;BME280;17813;0.000;0.000;2023-03-15T01:33:31;76627.84;;;-142.58;80.31
31183;BME280;17813;0.000;0.000;2023-03-15T01:36:04;76629.88;;;-142.58;79.29
31183;BME280;17813;0.000;0.000;2023-03-15T01:38:32;76633.94;;;-142.58;79.30
31183;BME280;17813;0.000;0.000;2023-03-15T01:40:59;76638.00;;;-142.58;79.98
31183;BME280;17813;0.000;0.000;2023-03-15T01:43:29;76640.03;;;-142.58;80.03
31183;BME280;17813;0.000;0.000;2023-03-15T01:46:03;76642.09;;;-142.58;79.88
31183;BME280;17813;0.000;0.000;2023-03-15T01:54:24;76674.63;;;-142.58;80.96
31183;BME280;17813;0.000;0.000;2023-03-15T01:59:43;76697.00;;;-142.58;81.14
31183;BME280;17813;0.000;0.000;2023-03-15T02:02:12;34249.81;;;-142.58;80.37
31183;BME280;17813;0.000;0.000;2023-03-15T02:04:44;76707.19;;;-142.58;79.94
31183;BME280;17813;0.000;0.000;2023-03-15T02:07:15;76699.03;;;-142.58;81.16
31183;BME280;17813;0.000;0.000;2023-03-15T02:12:32;76701.09;;;-142.58;80.23
31183;BME280;17813;0.000;0.000;2023-03-15T02:15:02;33841.31;;;-142.58;81.08
31183;BME280;17813;0.000;0.000;2023-03-15T02:17:36;76721.44;;;-142.58;81.15
31183;BME280;17813;0.000;0.000;2023-03-15T02:20:16;76727.53;;;-142.58;81.53
31183;BME280;17813;0.000;0.000;2023-03-15T02:22:59;76737.69;;;-142.58;80.47
31183;BME280;17813;0.000;0.000;2023-03-15T02:28:26;76753.97;;;-142.58;80.99
31183;BME280;17813;0.000;0.000;2023-03-15T02:30:54;76760.09;;;-142.58;81.48
31183;BME280;17813;0.000;0.000;2023-03-15T02:33:26;76768.22;;;-142.58;81.33
31183;BME280;17813;0.000;0.000;2023-03-15T02:36:05;76780.44;;;-142.58;81.55
31183;BME280;17813;0.000;0.000;2023-03-15T02:38:33;76788.69;;;-142.58;81.66
31183;BME280;17813;0.000;0.000;2023-03-15T02:41:00;76788.69;;;-142.58;82.00
31183;BME280;17813;0.000;0.000;2023-03-15T02:43:29;98930.88;;;-142.58;81.32
31183;BME280;17813;0.000;0.000;2023-03-15T02:45:57;76808.91;;;-142.58;81.31
31183;BME280;17813;0.000;0.000;2023-03-15T02:48:26;98932.69;;;-142.58;80.94
31183;BME280;17813;0.000;0.000;2023-03-15T02:50:54;76810.94;;;-142.58;80.93
31183;BME280;17813;0.000;0.000;2023-03-15T02:53:21;76817.06;;;-142.58;81.39
31183;BME280;17813;0.000;0.000;2023-03-15T02:55:48;76823.16;;;-142.58;81.33
31183;BME280;17813;0.000;0.000;2023-03-15T02:58:15;76841.47;;;-142.58;80.79
31183;BME280;17813;0.000;0.000;2023-03-15T03:00:42;76837.41;;;-142.58;81.72
31183;BME280;17813;0.000;0.000;2023-03-15T03:03:10;76847.56;;;-142.58;81.05
31183;BME280;17813;0.000;0.000;2023-03-15T03:05:37;76851.63;;;-142.58;80.85
31183;BME280;17813;0.000;0.000;2023-03-15T03:08:04;76857.75;;;-142.58;81.44
31183;BME280;17813;0.000;0.000;2023-03-15T03:10:31;76865.88;;;-142.58;81.32
31183;BME280;17813;0.000;0.000;2023-03-15T03:12:59;76871.97;;;-142.58;80.68
31183;BME280;17813;0.000;0.000;2023-03-15T03:15:27;76888.25;;;-142.58;81.41
31183;BME280;17813;0.000;0.000;2023-03-15T03:17:54;76908.59;;;-142.58;81.54
31183;BME280;17813;0.000;0.000;2023-03-15T03:20:21;76912.69;;;-142.58;81.64
31183;BME280;17813;0.000;0.000;2023-03-15T03:22:48;76941.16;;;-142.58;82.89
31183;BME280;17813;0.000;0.000;2023-03-15T03:25:15;76963.53;;;-142.58;84.31
31183;BME280;17813;0.000;0.000;2023-03-15T03:27:45;76965.56;;;-142.58;83.50
31183;BME280;17813;0.000;0.000;2023-03-15T03:30:13;76971.69;;;-142.58;83.14
31183;BME280;17813;0.000;0.000;2023-03-15T03:32:41;76975.75;;;-142.58;82.84
31183;BME280;17813;0.000;0.000;2023-03-15T03:35:08;76981.84;;;-142.58;82.51
31183;BME280;17813;0.000;0.000;2023-03-15T03:37:36;76984.00;;;-142.58;82.30
31183;BME280;17813;0.000;0.000;2023-03-15T03:40:03;76971.69;;;-142.58;82.15
31183;BME280;17813;0.000;0.000;2023-03-15T03:42:33;76975.75;;;-142.58;82.08
31183;BME280;17813;0.000;0.000;2023-03-15T03:45:00;76975.75;;;-142.58;81.63
31183;BME280;17813;0.000;0.000;2023-03-15T03:47:27;76979.81;;;-142.58;82.08
31183;BME280;17813;0.000;0.000;2023-03-15T03:49:54;76979.81;;;-142.58;81.73
31183;BME280;17813;0.000;0.000;2023-03-15T03:52:21;76987.97;;;-142.58;82.05
31183;BME280;17813;0.000;0.000;2023-03-15T03:54:48;76996.09;;;-142.58;81.45
31183;BME280;17813;0.000;0.000;2023-03-15T03:57:15;77002.19;;;-142.58;82.09
31183;BME280;17813;0.000;0.000;2023-03-15T03:59:42;77006.28;;;-142.58;82.44
31183;BME280;17813;0.000;0.000;2023-03-15T04:02:09;77010.34;;;-142.58;82.00
31183;BME280;17813;0.000;0.000;2023-03-15T04:04:36;77024.59;;;-142.58;81.40
31183;BME280;17813;0.000;0.000;2023-03-15T04:07:06;77028.66;;;-142.58;82.20
31183;BME280;17813;0.000;0.000;2023-03-15T04:09:33;77061.22;;;-142.58;82.59
31183;BME280;17813;0.000;0.000;2023-03-15T04:12:04;77067.31;;;-142.58;83.50
31183;BME280;17813;0.000;0.000;2023-03-15T04:14:32;77073.41;;;-142.58;83.14
31183;BME280;17813;0.000;0.000;2023-03-15T04:16:59;77091.72;;;-142.58;84.00
31183;BME280;17813;0.000;0.000;2023-03-15T04:19:30;77095.81;;;-142.58;83.39
31183;BME280;17813;0.000;0.000;2023-03-15T04:21:56;77099.88;;;-142.58;84.74
31183;BME280;17813;0.000;0.000;2023-03-15T04:24:23;99051.06;;;-142.58;83.62
31183;BME280;17813;0.000;0.000;2023-03-15T04:26:51;77110.03;;;-142.58;83.61
31183;BME280;17813;0.000;0.000;2023-03-15T04:29:23;77126.31;;;-142.58;83.45
31183;BME280;17813;0.000;0.000;2023-03-15T04:31:50;77126.31;;;-142.58;84.25
31183;BME280;17813;0.000;0.000;2023-03-15T04:34:16;77134.47;;;-142.58;0.00
31183;BME280;17813;0.000;0.000;2023-03-15T04:36:43;77162.94;;;-142.58;84.70
31183;BME280;17813;0.000;0.000;2023-03-15T04:39:10;31448.00;;;-142.58;0.00
31183;BME280;17813;0.000;0.000;2023-03-15T04:41:37;77193.47;;;-142.58;85.16
31183;BME280;17813;0.000;0.000;2023-03-15T04:44:05;99086.22;;;-142.58;84.58
31183;BME280;17813;0.000;0.000;2023-03-15T04:46:33;77197.53;;;-142.58;84.59
31183;BME280;17813;0.000;0.000;2023-03-15T04:49:00;77179.22;;;-142.58;84.65
31183;BME280;17813;0.000;0.000;2023-03-15T04:51:28;77179.34;;;-142.58;85.45
31183;BME280;17813;0.000;0.000;2023-03-15T04:53:56;77179.22;;;-142.58;84.73
31183;BME280;17813;0.000;0.000;2023-03-15T04:56:23;77193.47;;;-142.58;84.59
31183;BME280;17813;0.000;0.000;2023-03-15T04:58:53;77193.47;;;-142.58;84.68
31183;BME280;17813;0.000;0.000;2023-03-15T05:01:30;77207.72;;;-142.58;85.00
31183;BME280;17813;0.000;0.000;2023-03-15T05:03:58;77215.84;;;-142.58;84.76
31183;BME280;17813;0.000;0.000;2023-03-15T05:06:25;77215.84;;;-142.58;84.70
31183;BME280;17813;0.000;0.000;2023-03-15T05:08:53;77211.78;;;-142.58;85.02
31183;BME280;17813;0.000;0.000;2023-03-15T05:11:21;77213.81;;;-142.58;84.68
31183;BME280;17813;0.000;0.000;2023-03-15T05:13:47;77037.59;;;-142.58;84.86
31183;BME280;17813;0.000;0.000;2023-03-15T05:16:15;77207.72;;;-142.58;84.36
31183;BME280;17813;0.000;0.000;2023-03-15T05:18:42;77213.81;;;-142.58;84.30
31183;BME280;17813;0.000;0.000;2023-03-15T05:21:11;77215.84;;;-142.58;83.87
31183;BME280;17813;0.000;0.000;2023-03-15T05:23:39;77213.81;;;-142.58;84.87
31183;BME280;17813;0.000;0.000;2023-03-15T05:26:07;77215.84;;;-142.58;84.45
31183;BME280;17813;0.000;0.000;2023-03-15T05:28:35;77215.84;;;-142.58;84.69
31183;BME280;17813;0.000;0.000;2023-03-15T05:31:02;77215.84;;;-142.58;84.23
31183;BME280;17813;0.000;0.000;2023-03-15T05:33:29;99143.13;;;-142.58;84.67
31183;BME280;17813;0.000;0.000;2023-03-15T05:35:56;77226.03;;;-142.58;84.70
31183;BME280;17813;0.000;0.000;2023-03-15T05:38:24;77215.84;;;-142.58;85.20
31183;BME280;17813;0.000;0.000;2023-03-15T05:40:53;77215.84;;;-142.58;84.64
31183;BME280;17813;0.000;0.000;2023-03-15T05:43:20;77205.69;;;-142.58;83.97
31183;BME280;17813;0.000;0.000;2023-03-15T05:45:47;77203.63;;;-142.58;84.18
31183;BME280;17813;0.000;0.000;2023-03-15T05:48:15;77205.69;;;-142.58;84.35
31183;BME280;17813;0.000;0.000;2023-03-15T05:50:42;77203.63;;;-142.58;84.15
31183;BME280;17813;0.000;0.000;2023-03-15T05:53:09;77189.41;;;-142.58;83.38
31183;BME280;17813;0.000;0.000;2023-03-15T05:55:36;77179.22;;;-142.58;83.84
31183;BME280;17813;0.000;0.000;2023-03-15T05:58:04;77162.94;;;-142.58;83.90
31183;BME280;17813;0.000;0.000;2023-03-15T06:00:32;77160.91;;;-142.58;83.24
31183;BME280;17813;0.000;0.000;2023-03-15T06:03:05;77160.91;;;-142.58;83.48
31183;BME280;17813;0.000;0.000;2023-03-15T06:05:33;77158.88;;;-142.58;82.62
31183;BME280;17813;0.000;0.000;2023-03-15T06:08:00;77154.81;;;-142.58;82.33
31183;BME280;17813;0.000;0.000;2023-03-15T06:10:26;77136.50;;;-142.58;82.67
31183;BME280;17813;0.000;0.000;2023-03-15T06:12:54;77114.09;;;-142.58;82.59
31183;BME280;17813;0.000;0.000;2023-03-15T06:15:20;77081.56;;;-142.58;81.75
31183;BME280;17813;0.000;0.000;2023-03-15T06:17:47;99182.94;;;-142.58;82.10
31183;BME280;17813;0.000;0.000;2023-03-15T06:20:18;99213.00;;;-142.58;80.78
31183;BME280;17813;0.000;0.000;2023-03-15T06:22:45;77010.34;;;-142.58;80.62
31183;BME280;17813;0.000;0.000;2023-03-15T06:25:12;76977.78;;;-142.58;79.23
31183;BME280;17813;0.000;0.000;2023-03-15T06:27:39;76965.56;;;-142.58;78.70
31183;BME280;17813;0.000;0.000;2023-03-15T06:30:07;76961.50;;;-142.58;79.70
31183;BME280;17813;0.000;0.000;2023-03-15T06:32:34;76937.09;;;-142.58;78.93
31183;BME280;17813;0.000;0.000;2023-03-15T06:35:01;35638.44;;;-142.58;77.84
31183;BME280;17813;0.000;0.000;2023-03-15T06:37:31;76955.41;;;-142.58;78.39
31183;BME280;17813;0.000;0.000;2023-03-15T06:39:59;76957.44;;;-142.58;77.71
31183;BME280;17813;0.000;0.000;2023-03-15T06:42:26;76961.50;;;-142.58;77.53
31183;BME280;17813;0.000;0.000;2023-03-15T06:44:52;76955.41;;;-142.58;78.28
31183;BME280;17813;0.000;0.000;2023-03-15T06:47:20;76965.56;;;-142.58;78.07
31183;BME280;17813;0.000;0.000;2023-03-15T06:49:47;76961.50;;;-142.58;77.95
31183;BME280;17813;0.000;0.000;2023-03-15T06:52:17;76955.41;;;-142.58;77.68
31183;BME280;17813;0.000;0.000;2023-03-15T06:54:44;76959.47;;;-142.58;77.32
31183;BME280;17813;0.000;0.000;2023-03-15T06:57:11;76955.41;;;-142.58;77.47
31183;BME280;17813;0.000;0.000;2023-03-15T06:59:39;76945.22;;;-142.58;76.64
31183;BME280;17813;0.000;0.000;2023-03-15T07:02:11;76949.31;;;-142.58;75.95
31183;BME280;17813;0.000;0.000;2023-03-15T07:04:40;76941.16;;;-142.58;76.26
31183;BME280;17813;0.000;0.000;2023-03-15T07:07:08;76916.75;;;-142.58;75.90
31183;BME280;17813;0.000;0.000;2023-03-15T07:09:35;76918.91;;;-142.58;74.77
31183;BME280;17813;0.000;0.000;2023-03-15T07:12:02;76900.47;;;-142.58;75.15
31183;BME280;17813;0.000;0.000;2023-03-15T07:14:30;76894.38;;;-142.58;75.02
31183;BME280;17813;0.000;0.000;2023-03-15T07:17:00;76902.50;;;-142.58;73.94
31183;BME280;17813;0.000;0.000;2023-03-15T07:19:28;76880.13;;;-142.58;73.61
31183;BME280;17813;0.000;0.000;2023-03-15T07:21:54;76861.81;;;-142.58;74.19
31183;BME280;17813;0.000;0.000;2023-03-15T07:24:23;76855.72;;;-142.58;73.51
31183;BME280;17813;0.000;0.000;2023-03-15T07:26:50;76839.44;;;-142.58;73.79
31183;BME280;17813;0.000;0.000;2023-03-15T07:29:22;76847.56;;;-142.58;72.79
31183;BME280;17813;0.000;0.000;2023-03-15T07:31:51;76845.53;;;-142.58;73.38
31183;BME280;17813;0.000;0.000;2023-03-15T07:34:19;76827.22;;;-142.58;72.19
31183;BME280;17813;0.000;0.000;2023-03-15T07:36:47;76808.91;;;-142.58;72.16
31183;BME280;17813;0.000;0.000;2023-03-15T07:39:14;76794.66;;;-142.58;72.63
31183;BME280;17813;0.000;0.000;2023-03-15T07:41:41;76800.78;;;-142.58;71.91
31183;BME280;17813;0.000;0.000;2023-03-15T07:44:08;76788.69;;;-142.58;73.37
31183;BME280;17813;0.000;0.000;2023-03-15T07:46:35;76788.69;;;-142.58;72.24
31183;BME280;17813;0.000;0.000;2023-03-15T07:49:03;76802.81;;;-142.58;71.49
31183;BME280;17813;0.000;0.000;2023-03-15T07:51:32;76788.56;;;-142.58;72.75
31183;BME280;17813;0.000;0.000;2023-03-15T07:54:01;76800.78;;;-142.58;70.33
31183;BME280;17813;0.000;0.000;2023-03-15T07:56:29;76780.44;;;-142.58;70.72
31183;BME280;17813;0.000;0.000;2023-03-15T07:58:56;76760.09;;;-142.58;70.77
31183;BME280;17813;0.000;0.000;2023-03-15T08:01:29;76725.50;;;-143.88;70.09
31183;BME280;17813;0.000;0.000;2023-03-15T08:03:57;76729.56;;;-142.58;70.17
31183;BME280;17813;0.000;0.000;2023-03-15T08:06:24;99279.31;;;4.56;70.16
31183;BME280;17813;0.000;0.000;2023-03-15T08:08:51;76684.81;;;-143.88;70.16
31183;BME280;17813;0.000;0.000;2023-03-15T08:11:18;99286.34;;;4.55;68.98
31183;BME280;17813;0.000;0.000;2023-03-15T08:13:45;76690.91;;;-142.58;68.98
31183;BME280;17813;0.000;0.000;2023-03-15T08:16:12;76694.97;;;-143.88;69.58
31183;BME280;17813;0.000;0.000;2023-03-15T08:18:39;76731.59;;;-143.88;0.00
31183;BME280;17813;0.000;0.000;2023-03-15T08:21:07;99290.69;;;4.56;69.58
31183;BME280;17813;0.000;0.000;2023-03-15T08:23:34;76692.94;;;-143.88;69.58
31183;BME280;17813;0.000;0.000;2023-03-15T08:26:01;99292.34;;;4.59;69.17
31183;BME280;17813;0.000;0.000;2023-03-15T08:28:29;99298.38;;;4.61;69.30
31183;BME280;17813;0.000;0.000;2023-03-15T08:30:56;99298.91;;;4.69;69.47
31183;BME280;17813;0.000;0.000;2023-03-15T08:33:24;99303.00;;;4.76;69.31
31183;BME280;17813;0.000;0.000;2023-03-15T08:35:55;99302.81;;;4.80;69.71
31183;BME280;17813;0.000;0.000;2023-03-15T08:38:23;99300.78;;;4.87;69.56
31183;BME280;17813;0.000;0.000;2023-03-15T08:41:01;99301.84;;;4.83;68.92
31183;BME280;17813;0.000;0.000;2023-03-15T08:43:27;99311.19;;;4.68;68.85
31183;BME280;17813;0.000;0.000;2023-03-15T08:45:54;99313.56;;;4.96;69.63
31183;BME280;17813;0.000;0.000;2023-03-15T08:48:22;99316.84;;;5.01;69.33
31183;BME280;17813;0.000;0.000;2023-03-15T08:50:49;99315.59;;;5.10;68.64
31183;BME280;17813;0.000;0.000;2023-03-15T08:53:16;99320.13;;;5.28;69.24
31183;BME280;17813;0.000;0.000;2023-03-15T08:55:43;99321.47;;;5.57;69.06
31183;BME280;17813;0.000;0.000;2023-03-15T09:01:59;99322.66;;;5.91;68.30
31183;BME280;17813;0.000;0.000;2023-03-15T09:04:27;99323.16;;;5.78;67.22
31183;BME280;17813;0.000;0.000;2023-03-15T09:06:54;99322.09;;;5.82;67.81
31183;BME280;17813;0.000;0.000;2023-03-15T09:09:21;99325.00;;;5.76;67.10
31183;BME280;17813;0.000;0.000;2023-03-15T09:11:48;99327.31;;;5.84;67.27
31183;BME280;17813;0.000;0.000;2023-03-15T09:14:15;99330.63;;;6.08;67.36
31183;BME280;17813;0.000;0.000;2023-03-15T09:16:45;99329.44;;;6.34;67.06
31183;BME280;17813;0.000;0.000;2023-03-15T09:19:12;99335.25;;;6.40;66.40
31183;BME280;17813;0.000;0.000;2023-03-15T09:21:39;99333.06;;;6.12;65.95
31183;BME280;17813;0.000;0.000;2023-03-15T09:24:07;99335.19;;;6.23;66.55
31183;BME280;17813;0.000;0.000;2023-03-15T09:26:34;99337.81;;;6.23;66.33
31183;BME280;17813;0.000;0.000;2023-03-15T09:29:02;99345.50;;;6.28;66.38
31183;BME280;17813;0.000;0.000;2023-03-15T09:31:30;99346.94;;;6.35;67.02
31183;BME280;17813;0.000;0.000;2023-03-15T09:33:59;99345.84;;;6.01;66.59
31183;BME280;17813;0.000;0.000;2023-03-15T09:36:44;99347.06;;;5.94;67.47
31183;BME280;17813;0.000;0.000;2023-03-15T09:39:15;99354.41;;;6.25;67.48
31183;BME280;17813;0.000;0.000;2023-03-15T09:41:44;99348.22;;;6.26;67.25
31183;BME280;17813;0.000;0.000;2023-03-15T09:44:29;99346.66;;;6.22;67.37
31183;BME280;17813;0.000;0.000;2023-03-15T09:49:50;99357.03;;;6.25;65.71
31183;BME280;17813;0.000;0.000;2023-03-15T09:52:51;99359.19;;;6.36;67.04
31183;BME280;17813;0.000;0.000;2023-03-15T09:55:22;99366.78;;;6.61;67.35
31183;BME280;17813;0.000;0.000;2023-03-15T09:58:04;99362.72;;;6.72;66.25
31183;BME280;17813;0.000;0.000;2023-03-15T10:00:49;99367.91;;;6.74;66.95
31183;BME280;17813;0.000;0.000;2023-03-15T10:06:16;99363.09;;;6.46;66.35
31183;BME280;17813;0.000;0.000;2023-03-15T10:08:50;99360.78;;;6.76;65.66
31183;BME280;17813;0.000;0.000;2023-03-15T10:11:28;99375.19;;;7.05;65.95
31183;BME280;17813;0.000;0.000;2023-03-15T10:14:04;99375.06;;;7.60;65.99
31183;BME280;17813;0.000;0.000;2023-03-15T10:16:46;99364.03;;;8.19;63.75
31183;BME280;17813;0.000;0.000;2023-03-15T10:22:17;99372.94;;;8.01;62.77
31183;BME280;17813;0.000;0.000;2023-03-15T10:30:07;99380.59;;;7.38;64.84
31183;BME280;17813;0.000;0.000;2023-03-15T10:32:42;99375.06;;;7.42;65.34
31183;BME280;17813;0.000;0.000;2023-03-15T10:35:16;99369.25;;;7.36;64.02
31183;BME280;17813;0.000;0.000;2023-03-15T10:37:45;99366.75;;;7.67;64.48
31183;BME280;17813;0.000;0.000;2023-03-15T10:40:13;99372.56;;;7.74;63.85
31183;BME280;17813;0.000;0.000;2023-03-15T10:42:47;99369.63;;;7.63;63.00
31183;BME280;17813;0.000;0.000;2023-03-15T10:45:24;99364.44;;;7.61;63.08
31183;BME280;17813;0.000;0.000;2023-03-15T10:47:52;99364.28;;;7.47;62.41
31183;BME280;17813;0.000;0.000;2023-03-15T10:50:32;99362.22;;;7.00;61.89
31183;BME280;17813;0.000;0.000;2023-03-15T10:53:01;99363.25;;;6.98;63.82
31183;BME280;17813;0.000;0.000;2023-03-15T10:55:43;99358.91;;;6.97;63.92
31183;BME280;17813;0.000;0.000;2023-03-15T10:58:45;99358.59;;;7.03;63.79
31183;BME280;17813;0.000;0.000;2023-03-15T11:01:30;99354.19;;;7.03;63.82
31183;BME280;17813;0.000;0.000;2023-03-15T11:04:22;99352.69;;;6.98;62.93
31183;BME280;17813;0.000;0.000;2023-03-15T11:09:22;99348.59;;;7.61;63.05
31183;BME280;17813;0.000;0.000;2023-03-15T11:12:00;99363.34;;;7.83;61.15
31183;BME280;17813;0.000;0.000;2023-03-15T11:15:02;99375.16;;;7.41;60.76
31183;BME280;17813;0.000;0.000;2023-03-15T11:17:35;99370.16;;;7.00;63.10
31183;BME280;17813;0.000;0.000;2023-03-15T11:20:35;99378.13;;;6.44;64.91
31183;BME280;17813;0.000;0.000;2023-03-15T11:23:16;99382.56;;;5.84;67.24
31183;BME280;17813;0.000;0.000;2023-03-15T11:25:43;99398.41;;;5.42;69.80
31183;BME280;17813;0.000;0.000;2023-03-15T11:28:19;99397.03;;;5.11;69.68
31183;BME280;17813;0.000;0.000;2023-03-15T11:30:48;99395.25;;;4.90;70.10
31183;BME280;17813;0.000;0.000;2023-03-15T11:33:50;99405.28;;;4.35;71.08
31183;BME280;17813;0.000;0.000;2023-03-15T11:36:22;76808.91;;;-143.88;71.08
31183;BME280;17813;0.000;0.000;2023-03-15T11:38:52;76863.84;;;-143.88;72.28
31183;BME280;17813;0.000;0.000;2023-03-15T11:41:32;99390.63;;;4.06;72.39
31183;BME280;17813;0.000;0.000;2023-03-15T11:47:07;99386.09;;;4.57;73.29
31183;BME280;17813;0.000;0.000;2023-03-15T11:49:50;99387.88;;;5.00;73.04
31183;BME280;17813;0.000;0.000;2023-03-15T11:52:21;99391.31;;;5.44;71.44
31183;BME280;17813;0.000;0.000;2023-03-15T11:54:50;99395.47;;;5.70;70.79
31183;BME280;17813;0.000;0.000;2023-03-15T11:57:39;99386.19;;;5.81;71.76
31183;BME280;17813;0.000;0.000;2023-03-15T12:02:56;99387.13;;;6.01;70.78
31183;BME280;17813;0.000;0.000;2023-03-15T12:05:43;99386.56;;;6.13;70.90
31183;BME280;17813;0.000;0.000;2023-03-15T12:08:21;99388.09;;;5.98;71.35
31183;BME280;17813;0.000;0.000;2023-03-15T12:10:51;99396.34;;;5.91;70.94
31183;BME280;17813;0.000;0.000;2023-03-15T12:13:26;99401.25;;;5.78;71.53
31183;BME280;17813;0.000;0.000;2023-03-15T12:15:54;99404.81;;;5.57;72.13
31183;BME280;17813;0.000;0.000;2023-03-15T12:18:25;99409.06;;;5.17;72.28
31183;BME280;17813;0.000;0.000;2023-03-15T12:23:55;99405.34;;;5.01;72.72
31183;BME280;17813;0.000;0.000;2023-03-15T12:26:43;99400.25;;;5.40;74.71
31183;BME280;17813;0.000;0.000;2023-03-15T12:29:18;99399.41;;;5.80;74.50
31183;BME280;17813;0.000;0.000;2023-03-15T12:32:08;99393.06;;;6.43;74.38
31183;BME280;17813;0.000;0.000;2023-03-15T12:35:05;99398.75;;;6.91;73.30
31183;BME280;17813;0.000;0.000;2023-03-15T12:37:44;99402.75;;;7.17;72.36
31183;BME280;17813;0.000;0.000;2023-03-15T12:59:02;99456.13;;;5.67;71.69
31183;BME280;17813;0.000;0.000;2023-03-15T13:01:31;99467.06;;;5.36;72.62
31183;BME280;17813;0.000;0.000;2023-03-15T13:03:59;99464.28;;;5.17;72.87
31183;BME280;17813;0.000;0.000;2023-03-15T13:09:49;99464.81;;;4.58;73.44
31183;BME280;17813;0.000;0.000;2023-03-15T13:12:36;99472.28;;;4.45;74.10
31183;BME280;17813;0.000;0.000;2023-03-15T13:15:26;76847.56;;;-142.58;74.10
31183;BME280;17813;0.000;0.000;2023-03-15T13:17:57;76853.81;;;-143.88;74.52
31183;BME280;17813;0.000;0.000;2023-03-15T13:23:30;99443.44;;;5.12;74.89
31183;BME280;17813;0.000;0.000;2023-03-15T13:26:24;99443.56;;;5.73;75.33
31183;BME280;17813;0.000;0.000;2023-03-15T13:29:03;99445.91;;;6.59;73.76
31183;BME280;17813;0.000;0.000;2023-03-15T13:31:35;99443.41;;;6.94;71.71
31183;BME280;17813;0.000;0.000;2023-03-15T13:36:42;99430.78;;;7.36;68.86
31183;BME280;17813;0.000;0.000;2023-03-15T13:39:20;99435.78;;;7.06;70.51
31183;BME280;17813;0.000;0.000;2023-03-15T13:41:56;99446.53;;;7.02;70.33
31183;BME280;17813;0.000;0.000;2023-03-15T13:44:24;99446.28;;;7.25;71.63
31183;BME280;17813;0.000;0.000;2023-03-15T13:46:53;99444.31;;;7.12;71.08
31183;BME280;17813;0.000;0.000;2023-03-15T13:49:21;99445.91;;;7.33;71.16
31183;BME280;17813;0.000;0.000;2023-03-15T13:51:50;99438.00;;;7.50;70.50
31183;BME280;17813;0.000;0.000;2023-03-15T13:54:25;99443.84;;;7.57;70.84
31183;BME280;17813;0.000;0.000;2023-03-15T13:57:15;99446.84;;;7.49;71.45
31183;BME280;17813;0.000;0.000;2023-03-15T14:05:24;99441.44;;;7.69;69.97
31183;BME280;17813;0.000;0.000;2023-03-15T14:08:14;99446.25;;;7.79;70.18
31183;BME280;17813;0.000;0.000;2023-03-15T14:10:58;99439.75;;;7.86;68.99
31183;BME280;17813;0.000;0.000;2023-03-15T14:13:27;99438.75;;;7.88;69.14
31183;BME280;17813;0.000;0.000;2023-03-15T14:16:04;76375.56;;;-142.58;69.14
31183;BME280;17813;0.000;0.000;2023-03-15T14:18:39;99446.44;;;7.93;68.88
31183;BME280;17813;0.000;0.000;2023-03-15T14:21:14;99438.06;;;7.85;67.75
31183;BME280;17813;0.000;0.000;2023-03-15T14:23:46;99441.97;;;7.76;67.26
31183;BME280;17813;0.000;0.000;2023-03-15T14:26:22;99433.91;;;7.79;67.16
31183;BME280;17813;0.000;0.000;2023-03-15T14:29:14;99442.69;;;7.62;66.08
31183;BME280;17813;0.000;0.000;2023-03-15T14:31:48;99443.63;;;7.61;66.97
31183;BME280;17813;0.000;0.000;2023-03-15T14:34:31;99450.06;;;7.56;66.49
31183;BME280;17813;0.000;0.000;2023-03-15T14:40:29;99448.66;;;7.49;65.44
31183;BME280;17813;0.000;0.000;2023-03-15T14:43:07;99441.75;;;7.46;66.41